Huvudsida
METAR-TAF:

METAR-TAF

Flygplatser :

Pinang, Malaysia

latitud: 05-18N, longitud: 100-16E, höjd: 3 m

Aktuellt väderrapport

Denna rapport gjordes för 20 minuter sedan, klockan 15:30 UTC
Stilla vind
Temperatur 27°C
Fuktighet 89%
Tryck 1012 hPa
Sikt 10 km eller mer
Få moln på en höjd av 2500 ft
Brutna moln på en höjd av 14000 ft
Brutna moln på en höjd av 27000 ft

METAR: WMKP 181530Z 00000KT 9999 FEW025 BKN140 BKN270 27/25 Q1012 NOSIG

Tid: 23:50 (15:50 UTC)

Väderprognos

Denna rapport gjordes för 4 timmar och 50 minuter sedan, klockan 11:00 UTC
Prognos gäller från 18 kl. 12 UTC till 19 kl. 12 UTC
Vind 5 kt från nord/nordost
Sikt 10 km eller mer
Få moln på en höjd av 2500 ft
Temporärt
från 19 kl. 00 UTC till 19 kl. 04 UTC
Sikt: 5000 m
Få moln på en höjd av 1000 ft
Få moln på en höjd av 1700 ft, Cumulonimbus.
åska, regn

TAF: WMKP 181100Z 1812/1912 02005KT 9999 FEW025 TEMPO 1900/1904 5000 TSRA FEW010 FEW017CB

Aktuella väderrapporter och prognoser från 4000 flygplatser (METAR- och TAF-rapporter).

De tillgängliga stationerna syns som gula och röda prickar på kartan.

För musen över prickarna för att se namnen på stationerna.

Klicka sedan för att få väderrapporter och prognoser.

För att ändra kartan: Klicka på de gröna knapparna med ett svart kors på för att zooma in; den gröna knappen med ett streck på för att zooma ut; eller på de gröna pilarna för angränsande kartor.


METAR-TAF: